sensor_id;sensor_type;location;lat;lon;timestamp;temperature;humidity
54202;DHT22;40108;53.152;5.844;2023-01-30T00:01:00;6.70;95.20
54202;DHT22;40108;53.152;5.844;2023-01-30T00:03:26;6.80;95.20
54202;DHT22;40108;53.152;5.844;2023-01-30T00:05:52;6.70;95.20
54202;DHT22;40108;53.152;5.844;2023-01-30T00:08:19;6.80;95.20
54202;DHT22;40108;53.152;5.844;2023-01-30T00:10:45;6.80;95.20
54202;DHT22;40108;53.152;5.844;2023-01-30T00:13:12;6.80;95.20
54202;DHT22;40108;53.152;5.844;2023-01-30T00:15:39;6.80;95.20
54202;DHT22;40108;53.152;5.844;2023-01-30T00:18:05;6.80;95.20
54202;DHT22;40108;53.152;5.844;2023-01-30T00:20:33;6.80;95.20
54202;DHT22;40108;53.152;5.844;2023-01-30T00:22:59;6.70;95.30
54202;DHT22;40108;53.152;5.844;2023-01-30T00:25:26;6.70;95.40
54202;DHT22;40108;53.152;5.844;2023-01-30T00:27:52;6.70;95.60
54202;DHT22;40108;53.152;5.844;2023-01-30T00:30:18;6.70;95.70
54202;DHT22;40108;53.152;5.844;2023-01-30T00:32:43;6.70;95.80
54202;DHT22;40108;53.152;5.844;2023-01-30T00:35:09;6.70;95.90
54202;DHT22;40108;53.152;5.844;2023-01-30T00:37:35;6.70;96.00
54202;DHT22;40108;53.152;5.844;2023-01-30T00:40:07;6.70;96.20
54202;DHT22;40108;53.152;5.844;2023-01-30T00:42:33;6.70;96.30
54202;DHT22;40108;53.152;5.844;2023-01-30T00:45:17;6.70;96.40
54202;DHT22;40108;53.152;5.844;2023-01-30T00:48:04;6.70;96.50
54202;DHT22;40108;53.152;5.844;2023-01-30T00:50:30;6.60;96.60
54202;DHT22;40108;53.152;5.844;2023-01-30T00:53:12;6.70;96.70
54202;DHT22;40108;53.152;5.844;2023-01-30T00:55:38;6.70;96.80
54202;DHT22;40108;53.152;5.844;2023-01-30T00:58:05;6.60;96.80
54202;DHT22;40108;53.152;5.844;2023-01-30T01:00:34;6.60;96.90
54202;DHT22;40108;53.152;5.844;2023-01-30T01:03:00;6.60;96.90
54202;DHT22;40108;53.152;5.844;2023-01-30T01:05:27;6.60;97.00
54202;DHT22;40108;53.152;5.844;2023-01-30T01:07:55;6.60;97.10
54202;DHT22;40108;53.152;5.844;2023-01-30T01:10:21;6.60;97.10
54202;DHT22;40108;53.152;5.844;2023-01-30T01:12:51;6.60;97.10
54202;DHT22;40108;53.152;5.844;2023-01-30T01:15:17;6.60;97.20
54202;DHT22;40108;53.152;5.844;2023-01-30T01:17:44;6.50;97.20
54202;DHT22;40108;53.152;5.844;2023-01-30T01:20:19;6.50;97.20
54202;DHT22;40108;53.152;5.844;2023-01-30T01:22:45;6.50;97.30
54202;DHT22;40108;53.152;5.844;2023-01-30T01:25:14;6.50;97.40
54202;DHT22;40108;53.152;5.844;2023-01-30T01:27:40;6.50;97.40
54202;DHT22;40108;53.152;5.844;2023-01-30T01:30:06;6.50;97.40
54202;DHT22;40108;53.152;5.844;2023-01-30T01:32:33;6.50;97.50
54202;DHT22;40108;53.152;5.844;2023-01-30T01:34:59;6.50;97.50
54202;DHT22;40108;53.152;5.844;2023-01-30T01:37:25;6.50;97.50
54202;DHT22;40108;53.152;5.844;2023-01-30T01:39:53;6.50;97.50
54202;DHT22;40108;53.152;5.844;2023-01-30T01:42:38;6.50;97.60
54202;DHT22;40108;53.152;5.844;2023-01-30T01:48:04;6.50;97.60
54202;DHT22;40108;53.152;5.844;2023-01-30T01:51:07;6.50;97.60
54202;DHT22;40108;53.152;5.844;2023-01-30T01:53:37;6.50;97.60
54202;DHT22;40108;53.152;5.844;2023-01-30T01:56:05;6.60;97.60
54202;DHT22;40108;53.152;5.844;2023-01-30T01:58:38;6.60;97.70
54202;DHT22;40108;53.152;5.844;2023-01-30T02:01:06;6.60;97.70
54202;DHT22;40108;53.152;5.844;2023-01-30T02:03:36;6.50;97.70
54202;DHT22;40108;53.152;5.844;2023-01-30T02:06:08;6.60;97.70
54202;DHT22;40108;53.152;5.844;2023-01-30T02:08:40;6.60;97.70
54202;DHT22;40108;53.152;5.844;2023-01-30T02:13:59;6.60;97.70
54202;DHT22;40108;53.152;5.844;2023-01-30T02:16:28;6.60;97.70
54202;DHT22;40108;53.152;5.844;2023-01-30T02:18:54;6.60;97.70
54202;DHT22;40108;53.152;5.844;2023-01-30T02:35:36;6.70;97.70
54202;DHT22;40108;53.152;5.844;2023-01-30T02:41:49;6.80;97.60
54202;DHT22;40108;53.152;5.844;2023-01-30T02:47:52;6.80;97.40
54202;DHT22;40108;53.152;5.844;2023-01-30T02:53:24;6.80;97.20
54202;DHT22;40108;53.152;5.844;2023-01-30T02:55:49;6.80;97.20
54202;DHT22;40108;53.152;5.844;2023-01-30T02:58:19;6.80;97.10
54202;DHT22;40108;53.152;5.844;2023-01-30T03:08:10;6.70;96.80
54202;DHT22;40108;53.152;5.844;2023-01-30T03:10:57;6.60;96.60
54202;DHT22;40108;53.152;5.844;2023-01-30T03:13:57;6.60;96.30
54202;DHT22;40108;53.152;5.844;2023-01-30T03:16:35;6.50;96.10
54202;DHT22;40108;53.152;5.844;2023-01-30T03:19:14;6.50;95.90
54202;DHT22;40108;53.152;5.844;2023-01-30T03:21:45;6.50;95.70
54202;DHT22;40108;53.152;5.844;2023-01-30T03:24:12;6.50;95.50
54202;DHT22;40108;53.152;5.844;2023-01-30T03:26:51;6.40;95.40
54202;DHT22;40108;53.152;5.844;2023-01-30T03:29:18;6.40;95.30
54202;DHT22;40108;53.152;5.844;2023-01-30T03:31:44;6.50;95.20
54202;DHT22;40108;53.152;5.844;2023-01-30T03:34:19;6.50;95.20
54202;DHT22;40108;53.152;5.844;2023-01-30T03:36:46;6.50;95.10
54202;DHT22;40108;53.152;5.844;2023-01-30T03:39:17;6.60;95.10
54202;DHT22;40108;53.152;5.844;2023-01-30T03:41:43;6.60;95.00
54202;DHT22;40108;53.152;5.844;2023-01-30T03:44:09;6.60;94.70
54202;DHT22;40108;53.152;5.844;2023-01-30T03:46:37;6.60;94.70
54202;DHT22;40108;53.152;5.844;2023-01-30T03:49:03;6.60;94.60
54202;DHT22;40108;53.152;5.844;2023-01-30T03:51:31;6.60;94.50
54202;DHT22;40108;53.152;5.844;2023-01-30T03:53:57;6.60;94.50
54202;DHT22;40108;53.152;5.844;2023-01-30T03:56:23;6.50;94.40
54202;DHT22;40108;53.152;5.844;2023-01-30T03:58:49;6.50;94.30
54202;DHT22;40108;53.152;5.844;2023-01-30T04:01:15;6.40;94.30
54202;DHT22;40108;53.152;5.844;2023-01-30T04:03:41;6.40;94.20
54202;DHT22;40108;53.152;5.844;2023-01-30T04:06:06;6.40;94.00
54202;DHT22;40108;53.152;5.844;2023-01-30T04:08:32;6.20;94.00
54202;DHT22;40108;53.152;5.844;2023-01-30T04:11:01;6.20;93.90
54202;DHT22;40108;53.152;5.844;2023-01-30T04:13:26;6.20;93.70
54202;DHT22;40108;53.152;5.844;2023-01-30T04:15:52;6.20;93.50
54202;DHT22;40108;53.152;5.844;2023-01-30T04:18:37;6.20;93.50
54202;DHT22;40108;53.152;5.844;2023-01-30T04:21:05;6.10;93.40
54202;DHT22;40108;53.152;5.844;2023-01-30T04:23:31;6.10;93.40
54202;DHT22;40108;53.152;5.844;2023-01-30T04:25:57;6.10;93.40
54202;DHT22;40108;53.152;5.844;2023-01-30T04:28:23;6.10;93.40
54202;DHT22;40108;53.152;5.844;2023-01-30T04:30:51;6.10;93.30
54202;DHT22;40108;53.152;5.844;2023-01-30T04:33:16;6.10;93.20
54202;DHT22;40108;53.152;5.844;2023-01-30T04:35:59;6.00;93.20
54202;DHT22;40108;53.152;5.844;2023-01-30T04:38:27;6.00;93.30
54202;DHT22;40108;53.152;5.844;2023-01-30T04:40:54;6.00;93.50
54202;DHT22;40108;53.152;5.844;2023-01-30T04:43:22;6.00;93.60
54202;DHT22;40108;53.152;5.844;2023-01-30T04:45:51;6.10;93.60
54202;DHT22;40108;53.152;5.844;2023-01-30T04:48:18;6.00;93.60
54202;DHT22;40108;53.152;5.844;2023-01-30T04:50:49;6.00;93.40
54202;DHT22;40108;53.152;5.844;2023-01-30T04:53:16;6.00;93.30
54202;DHT22;40108;53.152;5.844;2023-01-30T04:55:42;6.00;93.20
54202;DHT22;40108;53.152;5.844;2023-01-30T04:58:08;6.00;93.10
54202;DHT22;40108;53.152;5.844;2023-01-30T05:00:34;6.00;92.90
54202;DHT22;40108;53.152;5.844;2023-01-30T05:03:00;5.90;92.80
54202;DHT22;40108;53.152;5.844;2023-01-30T05:05:29;5.90;92.80
54202;DHT22;40108;53.152;5.844;2023-01-30T05:07:55;6.00;92.70
54202;DHT22;40108;53.152;5.844;2023-01-30T05:10:21;5.90;92.60
54202;DHT22;40108;53.152;5.844;2023-01-30T05:12:47;5.90;92.40
54202;DHT22;40108;53.152;5.844;2023-01-30T05:15:13;5.90;92.30
54202;DHT22;40108;53.152;5.844;2023-01-30T05:17:39;5.80;92.00
54202;DHT22;40108;53.152;5.844;2023-01-30T05:20:07;5.80;92.00
54202;DHT22;40108;53.152;5.844;2023-01-30T05:22:36;5.70;92.00
54202;DHT22;40108;53.152;5.844;2023-01-30T05:25:02;5.70;91.80
54202;DHT22;40108;53.152;5.844;2023-01-30T05:27:28;5.70;91.50
54202;DHT22;40108;53.152;5.844;2023-01-30T05:29:56;5.70;91.10
54202;DHT22;40108;53.152;5.844;2023-01-30T05:32:22;5.70;90.70
54202;DHT22;40108;53.152;5.844;2023-01-30T05:34:48;5.70;90.60
54202;DHT22;40108;53.152;5.844;2023-01-30T05:37:16;5.70;90.30
54202;DHT22;40108;53.152;5.844;2023-01-30T05:39:42;5.70;90.30
54202;DHT22;40108;53.152;5.844;2023-01-30T05:42:07;5.70;90.30
54202;DHT22;40108;53.152;5.844;2023-01-30T05:44:36;5.70;90.30
54202;DHT22;40108;53.152;5.844;2023-01-30T05:47:01;5.70;90.40
54202;DHT22;40108;53.152;5.844;2023-01-30T05:49:27;5.60;90.30
54202;DHT22;40108;53.152;5.844;2023-01-30T05:51:57;5.70;90.40
54202;DHT22;40108;53.152;5.844;2023-01-30T05:54:26;5.70;90.20
54202;DHT22;40108;53.152;5.844;2023-01-30T05:56:52;5.70;90.20
54202;DHT22;40108;53.152;5.844;2023-01-30T05:59:22;5.80;89.80
54202;DHT22;40108;53.152;5.844;2023-01-30T06:01:48;5.80;89.90
54202;DHT22;40108;53.152;5.844;2023-01-30T06:04:14;5.80;89.70
54202;DHT22;40108;53.152;5.844;2023-01-30T06:06:39;5.90;89.50
54202;DHT22;40108;53.152;5.844;2023-01-30T06:09:05;5.90;89.60
54202;DHT22;40108;53.152;5.844;2023-01-30T06:11:31;5.90;89.50
54202;DHT22;40108;53.152;5.844;2023-01-30T06:14:04;6.00;89.40
54202;DHT22;40108;53.152;5.844;2023-01-30T06:16:30;6.00;89.30
54202;DHT22;40108;53.152;5.844;2023-01-30T06:18:55;6.00;89.00
54202;DHT22;40108;53.152;5.844;2023-01-30T06:21:24;6.00;89.10
54202;DHT22;40108;53.152;5.844;2023-01-30T06:23:52;6.00;88.90
54202;DHT22;40108;53.152;5.844;2023-01-30T06:26:21;5.90;88.90
54202;DHT22;40108;53.152;5.844;2023-01-30T06:28:47;5.90;88.90
54202;DHT22;40108;53.152;5.844;2023-01-30T06:31:14;5.90;88.90
54202;DHT22;40108;53.152;5.844;2023-01-30T06:33:40;5.90;88.90
54202;DHT22;40108;53.152;5.844;2023-01-30T06:36:08;5.90;88.70
54202;DHT22;40108;53.152;5.844;2023-01-30T06:38:36;5.90;88.70
54202;DHT22;40108;53.152;5.844;2023-01-30T06:41:02;6.00;88.70
54202;DHT22;40108;53.152;5.844;2023-01-30T06:43:28;6.00;88.80
54202;DHT22;40108;53.152;5.844;2023-01-30T06:45:54;5.90;88.80
54202;DHT22;40108;53.152;5.844;2023-01-30T06:48:20;5.90;89.00
54202;DHT22;40108;53.152;5.844;2023-01-30T06:50:46;6.00;89.10
54202;DHT22;40108;53.152;5.844;2023-01-30T06:53:19;5.90;89.10
54202;DHT22;40108;53.152;5.844;2023-01-30T06:55:58;6.00;89.10
54202;DHT22;40108;53.152;5.844;2023-01-30T06:58:27;6.00;88.90
54202;DHT22;40108;53.152;5.844;2023-01-30T07:00:57;6.00;88.90
54202;DHT22;40108;53.152;5.844;2023-01-30T07:03:26;6.00;88.90
54202;DHT22;40108;53.152;5.844;2023-01-30T07:05:52;6.00;89.00
54202;DHT22;40108;53.152;5.844;2023-01-30T07:08:18;6.00;89.00
54202;DHT22;40108;53.152;5.844;2023-01-30T07:10:44;6.10;88.90
54202;DHT22;40108;53.152;5.844;2023-01-30T07:13:11;6.10;88.90
54202;DHT22;40108;53.152;5.844;2023-01-30T07:15:37;6.10;88.60
54202;DHT22;40108;53.152;5.844;2023-01-30T07:18:03;6.10;88.60
54202;DHT22;40108;53.152;5.844;2023-01-30T07:20:28;6.10;88.50
54202;DHT22;40108;53.152;5.844;2023-01-30T07:22:55;6.10;88.10
54202;DHT22;40108;53.152;5.844;2023-01-30T07:25:25;6.00;88.00
54202;DHT22;40108;53.152;5.844;2023-01-30T07:27:56;6.00;87.90
54202;DHT22;40108;53.152;5.844;2023-01-30T07:30:22;6.00;87.70
54202;DHT22;40108;53.152;5.844;2023-01-30T07:32:52;6.00;88.00
54202;DHT22;40108;53.152;5.844;2023-01-30T07:35:19;6.00;87.90
54202;DHT22;40108;53.152;5.844;2023-01-30T07:37:46;6.10;88.00
54202;DHT22;40108;53.152;5.844;2023-01-30T07:40:13;6.00;88.20
54202;DHT22;40108;53.152;5.844;2023-01-30T07:42:39;6.00;88.20
54202;DHT22;40108;53.152;5.844;2023-01-30T07:45:05;6.00;88.40
54202;DHT22;40108;53.152;5.844;2023-01-30T07:47:31;6.00;88.20
54202;DHT22;40108;53.152;5.844;2023-01-30T07:49:57;6.10;88.40
54202;DHT22;40108;53.152;5.844;2023-01-30T07:52:23;6.10;88.50
54202;DHT22;40108;53.152;5.844;2023-01-30T07:54:49;6.20;88.50
54202;DHT22;40108;53.152;5.844;2023-01-30T07:57:15;6.20;88.50
54202;DHT22;40108;53.152;5.844;2023-01-30T07:59:41;6.20;88.40
54202;DHT22;40108;53.152;5.844;2023-01-30T08:02:10;6.20;88.40
54202;DHT22;40108;53.152;5.844;2023-01-30T08:04:36;6.20;88.20
54202;DHT22;40108;53.152;5.844;2023-01-30T08:07:02;6.20;88.20
54202;DHT22;40108;53.152;5.844;2023-01-30T08:09:31;6.20;88.10
54202;DHT22;40108;53.152;5.844;2023-01-30T08:12:00;6.20;88.10
54202;DHT22;40108;53.152;5.844;2023-01-30T08:14:26;6.20;88.30
54202;DHT22;40108;53.152;5.844;2023-01-30T08:16:55;6.20;88.30
54202;DHT22;40108;53.152;5.844;2023-01-30T08:19:21;6.20;87.90
54202;DHT22;40108;53.152;5.844;2023-01-30T08:21:52;6.20;88.00
54202;DHT22;40108;53.152;5.844;2023-01-30T08:24:20;6.20;88.10
54202;DHT22;40108;53.152;5.844;2023-01-30T08:26:49;6.20;88.10
54202;DHT22;40108;53.152;5.844;2023-01-30T08:29:15;6.30;88.20
54202;DHT22;40108;53.152;5.844;2023-01-30T08:31:41;6.30;88.10
54202;DHT22;40108;53.152;5.844;2023-01-30T08:34:07;6.20;87.90
54202;DHT22;40108;53.152;5.844;2023-01-30T08:36:33;6.30;88.00
54202;DHT22;40108;53.152;5.844;2023-01-30T08:38:58;6.30;87.90
54202;DHT22;40108;53.152;5.844;2023-01-30T08:41:26;6.40;87.90
54202;DHT22;40108;53.152;5.844;2023-01-30T08:43:53;6.40;87.70
54202;DHT22;40108;53.152;5.844;2023-01-30T08:46:19;6.50;87.40
54202;DHT22;40108;53.152;5.844;2023-01-30T08:48:47;6.60;87.30
54202;DHT22;40108;53.152;5.844;2023-01-30T08:51:15;6.50;87.20
54202;DHT22;40108;53.152;5.844;2023-01-30T08:53:40;6.60;87.20
54202;DHT22;40108;53.152;5.844;2023-01-30T08:56:06;6.60;87.20
54202;DHT22;40108;53.152;5.844;2023-01-30T08:58:32;6.60;87.40
54202;DHT22;40108;53.152;5.844;2023-01-30T09:00:58;6.60;87.20
54202;DHT22;40108;53.152;5.844;2023-01-30T09:03:29;6.60;87.20
54202;DHT22;40108;53.152;5.844;2023-01-30T09:05:55;6.60;87.30
54202;DHT22;40108;53.152;5.844;2023-01-30T09:08:23;6.70;87.10
54202;DHT22;40108;53.152;5.844;2023-01-30T09:10:56;6.80;87.40
54202;DHT22;40108;53.152;5.844;2023-01-30T09:13:31;6.90;87.30
54202;DHT22;40108;53.152;5.844;2023-01-30T09:16:05;7.00;87.00
54202;DHT22;40108;53.152;5.844;2023-01-30T09:18:31;7.00;86.60
54202;DHT22;40108;53.152;5.844;2023-01-30T09:21:04;7.00;86.70
54202;DHT22;40108;53.152;5.844;2023-01-30T09:23:30;7.00;86.80
54202;DHT22;40108;53.152;5.844;2023-01-30T09:25:55;6.90;87.00
54202;DHT22;40108;53.152;5.844;2023-01-30T09:28:21;6.90;87.10
54202;DHT22;40108;53.152;5.844;2023-01-30T09:30:47;6.90;86.90
54202;DHT22;40108;53.152;5.844;2023-01-30T09:33:13;6.90;87.10
54202;DHT22;40108;53.152;5.844;2023-01-30T09:35:41;6.90;87.30
54202;DHT22;40108;53.152;5.844;2023-01-30T09:38:07;6.80;87.40
54202;DHT22;40108;53.152;5.844;2023-01-30T09:40:37;6.90;87.00
54202;DHT22;40108;53.152;5.844;2023-01-30T09:46:14;6.90;86.40
54202;DHT22;40108;53.152;5.844;2023-01-30T09:54:47;7.40;84.70
54202;DHT22;40108;53.152;5.844;2023-01-30T09:57:34;7.60;84.50
54202;DHT22;40108;53.152;5.844;2023-01-30T10:05:34;7.90;83.10
54202;DHT22;40108;53.152;5.844;2023-01-30T10:11:00;8.00;82.40
54202;DHT22;40108;53.152;5.844;2023-01-30T10:13:47;8.00;82.70
54202;DHT22;40108;53.152;5.844;2023-01-30T10:16:43;7.90;82.70
54202;DHT22;40108;53.152;5.844;2023-01-30T10:19:38;7.90;83.00
54202;DHT22;40108;53.152;5.844;2023-01-30T10:22:34;8.20;82.90
54202;DHT22;40108;53.152;5.844;2023-01-30T10:25:18;8.30;81.90
54202;DHT22;40108;53.152;5.844;2023-01-30T10:27:51;8.30;81.60
54202;DHT22;40108;53.152;5.844;2023-01-30T10:30:21;8.20;81.50
54202;DHT22;40108;53.152;5.844;2023-01-30T10:33:06;8.10;81.60
54202;DHT22;40108;53.152;5.844;2023-01-30T10:35:37;8.00;81.90
54202;DHT22;40108;53.152;5.844;2023-01-30T10:38:19;8.10;82.00
54202;DHT22;40108;53.152;5.844;2023-01-30T10:41:09;8.20;82.10
54202;DHT22;40108;53.152;5.844;2023-01-30T10:43:38;8.10;81.20
54202;DHT22;40108;53.152;5.844;2023-01-30T10:51:37;7.70;82.50
54202;DHT22;40108;53.152;5.844;2023-01-30T10:57:26;8.00;82.00
54202;DHT22;40108;53.152;5.844;2023-01-30T11:03:03;8.20;81.20
54202;DHT22;40108;53.152;5.844;2023-01-30T11:06:21;8.10;81.30
54202;DHT22;40108;53.152;5.844;2023-01-30T11:08:45;7.90;82.20
54202;DHT22;40108;53.152;5.844;2023-01-30T11:11:32;8.00;82.10
54202;DHT22;40108;53.152;5.844;2023-01-30T11:14:01;8.10;82.20
54202;DHT22;40108;53.152;5.844;2023-01-30T11:16:31;8.20;82.00
54202;DHT22;40108;53.152;5.844;2023-01-30T11:19:04;8.60;81.70
54202;DHT22;40108;53.152;5.844;2023-01-30T11:21:30;8.60;80.20
54202;DHT22;40108;53.152;5.844;2023-01-30T11:24:03;8.50;80.70
54202;DHT22;40108;53.152;5.844;2023-01-30T11:26:36;8.20;81.20
54202;DHT22;40108;53.152;5.844;2023-01-30T11:29:32;7.90;82.80
54202;DHT22;40108;53.152;5.844;2023-01-30T11:32:15;7.50;83.60
54202;DHT22;40108;53.152;5.844;2023-01-30T11:35:19;7.20;84.90
54202;DHT22;40108;53.152;5.844;2023-01-30T11:37:50;6.90;85.70
54202;DHT22;40108;53.152;5.844;2023-01-30T11:42:49;6.60;87.20
54202;DHT22;40108;53.152;5.844;2023-01-30T11:45:17;6.80;88.20
54202;DHT22;40108;53.152;5.844;2023-01-30T11:47:52;7.10;88.20
54202;DHT22;40108;53.152;5.844;2023-01-30T11:50:19;7.40;88.20
54202;DHT22;40108;53.152;5.844;2023-01-30T11:52:47;7.60;87.10
54202;DHT22;40108;53.152;5.844;2023-01-30T11:55:16;7.80;86.50
54202;DHT22;40108;53.152;5.844;2023-01-30T11:57:48;8.00;85.50
54202;DHT22;40108;53.152;5.844;2023-01-30T12:00:26;8.10;84.80
54202;DHT22;40108;53.152;5.844;2023-01-30T12:02:56;8.20;84.50
54202;DHT22;40108;53.152;5.844;2023-01-30T12:05:35;8.40;84.20
54202;DHT22;40108;53.152;5.844;2023-01-30T12:10:48;8.70;82.00
54202;DHT22;40108;53.152;5.844;2023-01-30T12:13:33;8.80;82.10
54202;DHT22;40108;53.152;5.844;2023-01-30T12:16:21;8.90;81.50
54202;DHT22;40108;53.152;5.844;2023-01-30T12:19:06;8.90;81.70
54202;DHT22;40108;53.152;5.844;2023-01-30T12:22:10;9.00;81.10
54202;DHT22;40108;53.152;5.844;2023-01-30T12:24:50;9.10;80.80
54202;DHT22;40108;53.152;5.844;2023-01-30T12:27:36;9.20;80.80
54202;DHT22;40108;53.152;5.844;2023-01-30T12:32:42;9.20;80.70
54202;DHT22;40108;53.152;5.844;2023-01-30T12:35:24;9.20;80.00
54202;DHT22;40108;53.152;5.844;2023-01-30T12:41:33;9.20;80.10
54202;DHT22;40108;53.152;5.844;2023-01-30T12:54:04;9.20;79.90
54202;DHT22;40108;53.152;5.844;2023-01-30T12:59:38;9.30;79.40
54202;DHT22;40108;53.152;5.844;2023-01-30T13:19:58;9.40;79.20
54202;DHT22;40108;53.152;5.844;2023-01-30T13:26:05;9.40;79.00
54202;DHT22;40108;53.152;5.844;2023-01-30T13:28:39;9.20;79.10
54202;DHT22;40108;53.152;5.844;2023-01-30T13:31:59;9.00;79.50
54202;DHT22;40108;53.152;5.844;2023-01-30T13:34:35;8.70;79.80
54202;DHT22;40108;53.152;5.844;2023-01-30T13:37:23;8.60;80.30
54202;DHT22;40108;53.152;5.844;2023-01-30T13:40:10;8.40;80.90
54202;DHT22;40108;53.152;5.844;2023-01-30T13:42:40;8.40;81.10
54202;DHT22;40108;53.152;5.844;2023-01-30T13:45:16;8.30;81.20
54202;DHT22;40108;53.152;5.844;2023-01-30T13:48:07;8.20;81.30
54202;DHT22;40108;53.152;5.844;2023-01-30T13:57:19;8.10;82.20
54202;DHT22;40108;53.152;5.844;2023-01-30T14:03:14;7.90;82.60
54202;DHT22;40108;53.152;5.844;2023-01-30T14:08:29;7.90;83.20
54202;DHT22;40108;53.152;5.844;2023-01-30T14:10:56;7.90;83.40
54202;DHT22;40108;53.152;5.844;2023-01-30T14:13:25;7.80;83.50
54202;DHT22;40108;53.152;5.844;2023-01-30T14:15:53;7.80;83.60
54202;DHT22;40108;53.152;5.844;2023-01-30T14:18:23;7.80;83.90
54202;DHT22;40108;53.152;5.844;2023-01-30T14:20:52;7.80;84.10
54202;DHT22;40108;53.152;5.844;2023-01-30T14:23:36;7.80;84.10
54202;DHT22;40108;53.152;5.844;2023-01-30T14:26:04;7.80;84.30
54202;DHT22;40108;53.152;5.844;2023-01-30T14:30:59;7.70;84.60
54202;DHT22;40108;53.152;5.844;2023-01-30T14:38:36;7.60;85.10
54202;DHT22;40108;53.152;5.844;2023-01-30T14:54:54;7.30;85.40
54202;DHT22;40108;53.152;5.844;2023-01-30T14:57:27;7.20;85.50
54202;DHT22;40108;53.152;5.844;2023-01-30T15:00:04;7.20;85.40
54202;DHT22;40108;53.152;5.844;2023-01-30T15:02:36;7.20;85.40
54202;DHT22;40108;53.152;5.844;2023-01-30T15:05:12;7.20;85.60
54202;DHT22;40108;53.152;5.844;2023-01-30T15:07:47;7.20;85.60
54202;DHT22;40108;53.152;5.844;2023-01-30T15:20:31;6.90;85.80
54202;DHT22;40108;53.152;5.844;2023-01-30T15:26:27;6.90;86.10
54202;DHT22;40108;53.152;5.844;2023-01-30T15:31:56;6.80;86.80
54202;DHT22;40108;53.152;5.844;2023-01-30T15:34:27;6.80;87.30
54202;DHT22;40108;53.152;5.844;2023-01-30T15:36:54;6.90;87.60
54202;DHT22;40108;53.152;5.844;2023-01-30T15:39:22;6.90;87.80
54202;DHT22;40108;53.152;5.844;2023-01-30T15:41:49;6.80;87.90
54202;DHT22;40108;53.152;5.844;2023-01-30T15:44:51;6.90;87.90
54202;DHT22;40108;53.152;5.844;2023-01-30T15:47:45;6.90;87.80
54202;DHT22;40108;53.152;5.844;2023-01-30T15:50:14;6.80;87.70
54202;DHT22;40108;53.152;5.844;2023-01-30T15:52:46;6.80;87.50
54202;DHT22;40108;53.152;5.844;2023-01-30T15:55:30;6.70;87.30
54202;DHT22;40108;53.152;5.844;2023-01-30T15:58:08;6.60;86.90
54202;DHT22;40108;53.152;5.844;2023-01-30T16:00:48;6.50;86.70
54202;DHT22;40108;53.152;5.844;2023-01-30T16:03:19;6.50;86.70
54202;DHT22;40108;53.152;5.844;2023-01-30T16:05:48;6.40;86.60
54202;DHT22;40108;53.152;5.844;2023-01-30T16:08:28;6.30;86.50
54202;DHT22;40108;53.152;5.844;2023-01-30T16:10:54;6.30;86.40
54202;DHT22;40108;53.152;5.844;2023-01-30T16:13:22;6.30;86.50
54202;DHT22;40108;53.152;5.844;2023-01-30T16:16:02;6.20;86.60
54202;DHT22;40108;53.152;5.844;2023-01-30T16:21:07;6.20;86.70
54202;DHT22;40108;53.152;5.844;2023-01-30T16:23:41;6.20;86.70
54202;DHT22;40108;53.152;5.844;2023-01-30T16:26:12;6.10;86.40
54202;DHT22;40108;53.152;5.844;2023-01-30T16:28:50;6.10;86.30
54202;DHT22;40108;53.152;5.844;2023-01-30T16:31:25;6.00;86.10
54202;DHT22;40108;53.152;5.844;2023-01-30T16:33:55;5.90;86.10
54202;DHT22;40108;53.152;5.844;2023-01-30T16:36:28;5.90;86.20
54202;DHT22;40108;53.152;5.844;2023-01-30T16:39:33;5.80;86.30
54202;DHT22;40108;53.152;5.844;2023-01-30T16:42:01;5.80;86.60
54202;DHT22;40108;53.152;5.844;2023-01-30T16:44:31;5.70;86.80
54202;DHT22;40108;53.152;5.844;2023-01-30T16:47:05;5.70;87.10
54202;DHT22;40108;53.152;5.844;2023-01-30T16:55:30;5.70;87.80
54202;DHT22;40108;53.152;5.844;2023-01-30T16:58:00;5.70;88.00
54202;DHT22;40108;53.152;5.844;2023-01-30T17:01:07;5.60;88.20
54202;DHT22;40108;53.152;5.844;2023-01-30T17:03:41;5.60;88.20
54202;DHT22;40108;53.152;5.844;2023-01-30T17:07:00;5.60;88.30
54202;DHT22;40108;53.152;5.844;2023-01-30T17:09:33;5.60;88.40
54202;DHT22;40108;53.152;5.844;2023-01-30T17:18:21;5.40;88.80
54202;DHT22;40108;53.152;5.844;2023-01-30T17:20:47;5.40;88.90
54202;DHT22;40108;53.152;5.844;2023-01-30T17:23:17;5.40;88.90
54202;DHT22;40108;53.152;5.844;2023-01-30T17:25:47;5.40;89.10
54202;DHT22;40108;53.152;5.844;2023-01-30T17:28:19;5.40;89.20
54202;DHT22;40108;53.152;5.844;2023-01-30T17:31:30;5.50;89.30
54202;DHT22;40108;53.152;5.844;2023-01-30T17:45:21;5.60;89.40
54202;DHT22;40108;53.152;5.844;2023-01-30T17:51:36;5.70;89.10
54202;DHT22;40108;53.152;5.844;2023-01-30T17:54:02;5.70;89.00
54202;DHT22;40108;53.152;5.844;2023-01-30T17:56:35;5.70;88.80
54202;DHT22;40108;53.152;5.844;2023-01-30T17:59:27;5.60;88.70
54202;DHT22;40108;53.152;5.844;2023-01-30T18:05:35;5.60;88.80
54202;DHT22;40108;53.152;5.844;2023-01-30T18:08:11;5.60;89.00
54202;DHT22;40108;53.152;5.844;2023-01-30T18:10:44;5.50;89.10
54202;DHT22;40108;53.152;5.844;2023-01-30T18:13:13;5.60;89.40
54202;DHT22;40108;53.152;5.844;2023-01-30T18:15:39;5.50;89.50
54202;DHT22;40108;53.152;5.844;2023-01-30T18:18:10;5.60;89.40
54202;DHT22;40108;53.152;5.844;2023-01-30T18:20:36;5.60;89.60
54202;DHT22;40108;53.152;5.844;2023-01-30T18:23:02;5.50;89.60
54202;DHT22;40108;53.152;5.844;2023-01-30T18:25:28;5.50;89.60
54202;DHT22;40108;53.152;5.844;2023-01-30T18:30:29;5.40;89.60
54202;DHT22;40108;53.152;5.844;2023-01-30T18:32:55;5.30;89.60
54202;DHT22;40108;53.152;5.844;2023-01-30T18:35:21;5.30;89.60
54202;DHT22;40108;53.152;5.844;2023-01-30T18:37:47;5.20;89.60
54202;DHT22;40108;53.152;5.844;2023-01-30T18:40:14;5.30;89.80
54202;DHT22;40108;53.152;5.844;2023-01-30T18:42:40;5.30;89.90
54202;DHT22;40108;53.152;5.844;2023-01-30T18:45:15;5.40;90.00
54202;DHT22;40108;53.152;5.844;2023-01-30T18:47:44;5.40;90.20
54202;DHT22;40108;53.152;5.844;2023-01-30T18:50:12;5.40;90.50
54202;DHT22;40108;53.152;5.844;2023-01-30T18:52:38;5.40;90.80
54202;DHT22;40108;53.152;5.844;2023-01-30T18:55:07;5.50;90.90
54202;DHT22;40108;53.152;5.844;2023-01-30T18:57:33;5.50;91.00
54202;DHT22;40108;53.152;5.844;2023-01-30T18:59:59;5.50;90.90
54202;DHT22;40108;53.152;5.844;2023-01-30T19:02:25;5.50;90.90
54202;DHT22;40108;53.152;5.844;2023-01-30T19:04:50;5.50;90.80
54202;DHT22;40108;53.152;5.844;2023-01-30T19:07:16;5.40;90.70
54202;DHT22;40108;53.152;5.844;2023-01-30T19:10:14;5.50;90.70
54202;DHT22;40108;53.152;5.844;2023-01-30T19:16:24;5.40;90.70
54202;DHT22;40108;53.152;5.844;2023-01-30T19:18:54;5.40;90.60
54202;DHT22;40108;53.152;5.844;2023-01-30T19:21:27;5.30;90.50
54202;DHT22;40108;53.152;5.844;2023-01-30T19:23:54;5.30;90.50
54202;DHT22;40108;53.152;5.844;2023-01-30T19:26:22;5.30;90.50
54202;DHT22;40108;53.152;5.844;2023-01-30T19:28:49;5.30;90.50
54202;DHT22;40108;53.152;5.844;2023-01-30T19:37:15;5.20;90.50
54202;DHT22;40108;53.152;5.844;2023-01-30T19:43:23;5.20;90.40